Wildwood Landing, Indiana
Current Conditions -  °F | °C
As of 9:15 PM on Saturday 25 Oct 2014 (Local Time) from KANQ Reporting Station
Clear Clear  
Wind Chill: 55°   Ceiling: Unl
Heat Index: 55°   Visibility: 10mi
Dew Point: 36°   Wind: 5mph
Humidity: 47%   Direction: 300°WNW
Pressure: 29.87"   Gusts: NA
Location:  41.5814°N, 85.1996°W
Report Text: KANQ 260115Z AUTO 30004KT 10SM CLR 13/02 A2987 RMK
Loading
Personal Weather Stations






























Interactive Weather Map
Tropical Storm Tracking
New forecast layout! Learn more

10-Day Weather Forecast

Advertisements
Track Severe Weather on mobile